createdAt,value
2022-08-11T00:03:06.038Z,16.96
2022-08-11T00:08:08.043Z,16.87
2022-08-11T00:13:09.538Z,16.71
2022-08-11T00:18:17.059Z,16.68
2022-08-11T00:23:19.737Z,16.61
2022-08-11T00:28:27.312Z,16.49
2022-08-11T00:33:44.259Z,16.43
2022-08-11T00:38:49.327Z,16.35
2022-08-11T00:44:02.300Z,16.18
2022-08-11T00:49:22.544Z,16.04
2022-08-11T00:54:39.187Z,15.94
2022-08-11T01:00:09.992Z,15.90
2022-08-11T01:05:22.169Z,15.81
2022-08-11T01:10:29.339Z,15.78
2022-08-11T01:15:55.860Z,15.58
2022-08-11T01:21:23.766Z,15.46
2022-08-11T01:26:43.394Z,15.34
2022-08-11T01:31:55.897Z,15.21
2022-08-11T01:37:17.513Z,15.09
2022-08-11T01:42:53.505Z,15.02
2022-08-11T01:48:03.564Z,15.00
2022-08-11T01:53:20.064Z,14.87
2022-08-11T01:58:44.154Z,14.78
2022-08-11T02:03:49.007Z,14.70
2022-08-11T02:09:06.519Z,14.59
2022-08-11T02:14:29.330Z,14.49
2022-08-11T02:19:56.614Z,14.39
2022-08-11T02:25:04.327Z,14.29
2022-08-11T02:30:07.683Z,14.30
2022-08-11T02:35:18.963Z,14.25
2022-08-11T02:40:39.281Z,14.14
2022-08-11T02:45:48.134Z,14.03
2022-08-11T02:51:09.880Z,13.98
2022-08-11T02:56:16.093Z,13.88
2022-08-11T03:01:23.548Z,13.81
2022-08-11T03:06:31.483Z,13.72
2022-08-11T03:12:04.081Z,13.62
2022-08-11T03:17:05.488Z,13.55
2022-08-11T03:22:17.011Z,13.46
2022-08-11T03:27:24.275Z,13.46
2022-08-11T03:32:32.527Z,13.42
2022-08-11T03:38:00.157Z,13.37
2022-08-11T03:43:03.563Z,13.31
2022-08-11T03:48:21.625Z,13.28
2022-08-11T03:53:41.934Z,13.17
2022-08-11T03:59:12.179Z,13.17
2022-08-11T04:04:36.002Z,13.10
2022-08-11T04:09:54.559Z,12.98
2022-08-11T04:15:15.243Z,12.93
2022-08-11T04:20:25.613Z,12.93
2022-08-11T04:25:57.674Z,12.86
2022-08-11T04:31:10.196Z,12.87
2022-08-11T04:36:17.495Z,12.95
2022-08-11T04:41:34.325Z,13.03
2022-08-11T04:46:50.997Z,13.08
2022-08-11T04:52:36.022Z,13.06
2022-08-11T04:58:18.199Z,13.23
2022-08-11T05:03:51.907Z,13.25
2022-08-11T05:09:03.312Z,13.38
2022-08-11T05:14:29.480Z,13.50
2022-08-11T05:19:49.504Z,13.67
2022-08-11T05:25:10.928Z,13.86
2022-08-11T05:30:34.582Z,14.09
2022-08-11T05:36:01.991Z,14.37
2022-08-11T05:41:22.418Z,14.71
2022-08-11T05:46:42.891Z,15.46
2022-08-11T05:52:04.995Z,18.53
2022-08-11T05:57:07.157Z,20.82
2022-08-11T06:02:08.866Z,22.34
2022-08-11T06:07:11.248Z,22.41
2022-08-11T06:12:21.722Z,21.87
2022-08-11T06:17:24.220Z,21.47
2022-08-11T06:22:26.043Z,21.90
2022-08-11T06:27:29.803Z,25.13
2022-08-11T06:32:36.026Z,25.72
2022-08-11T06:38:09.963Z,25.24
2022-08-11T06:43:21.709Z,26.61
2022-08-11T06:48:24.737Z,26.60
2022-08-11T06:53:26.220Z,27.35
2022-08-11T06:58:48.603Z,26.12
2022-08-11T07:03:57.400Z,27.80
2022-08-11T07:09:43.565Z,29.54
2022-08-11T07:15:25.125Z,29.71
2022-08-11T07:21:05.446Z,30.05
2022-08-11T07:26:45.658Z,31.04
2022-08-11T07:31:50.541Z,29.40
2022-08-11T07:36:56.325Z,31.33
2022-08-11T07:41:58.373Z,32.62
2022-08-11T07:47:18.654Z,31.05
2022-08-11T07:52:33.852Z,32.85
2022-08-11T07:58:16.036Z,33.15
2022-08-11T08:03:34.628Z,33.19
2022-08-11T08:08:56.007Z,34.53
2022-08-11T08:14:15.914Z,34.59
2022-08-11T08:19:19.219Z,34.89
2022-08-11T08:24:21.268Z,33.65
2022-08-11T08:29:41.974Z,34.86
2022-08-11T08:34:44.140Z,34.87
2022-08-11T08:39:46.529Z,33.95
2022-08-11T08:44:51.814Z,34.27
2022-08-11T08:49:56.826Z,34.37
2022-08-11T08:55:02.182Z,35.23
2022-08-11T09:00:05.499Z,35.46
2022-08-11T09:05:10.566Z,34.65
2022-08-11T09:10:13.797Z,35.59
2022-08-11T09:15:19.550Z,35.82
2022-08-11T09:20:26.477Z,35.14
2022-08-11T09:25:48.621Z,34.55
2022-08-11T09:30:55.095Z,34.57
2022-08-11T09:35:57.343Z,34.90
2022-08-11T09:41:00.310Z,36.19
2022-08-11T09:46:03.177Z,35.65
2022-08-11T09:51:05.202Z,36.57
2022-08-11T09:56:29.794Z,35.97
2022-08-11T10:01:34.453Z,34.84
2022-08-11T10:06:55.735Z,36.12
2022-08-11T10:11:58.541Z,37.25
2022-08-11T10:17:02.885Z,36.22
2022-08-11T10:22:24.191Z,36.01
2022-08-11T10:28:28.517Z,35.84
2022-08-11T10:33:09.500Z,35.09
2022-08-11T10:38:15.578Z,35.24
2022-08-11T10:44:01.152Z,34.74
2022-08-11T10:48:38.846Z,34.57
2022-08-11T10:54:17.144Z,34.11
2022-08-11T10:59:18.676Z,34.90
2022-08-11T11:04:27.885Z,35.08
2022-08-11T11:09:33.363Z,34.54
2022-08-11T11:14:58.724Z,35.75
2022-08-11T11:20:01.898Z,36.15
2022-08-11T11:25:25.156Z,36.01
2022-08-11T11:30:32.776Z,35.30
2022-08-11T11:35:44.651Z,35.97
2022-08-11T11:41:07.068Z,35.25
2022-08-11T11:46:10.658Z,36.74
2022-08-11T11:51:13.977Z,34.60
2022-08-11T11:56:15.655Z,35.80
2022-08-11T12:01:18.960Z,33.70
2022-08-11T12:06:21.825Z,33.46
2022-08-11T12:11:43.822Z,33.30
2022-08-11T12:16:46.192Z,33.33
2022-08-11T12:22:06.776Z,33.01
2022-08-11T12:27:24.990Z,33.56
2022-08-11T12:32:30.187Z,33.94
2022-08-11T12:37:33.231Z,33.66
2022-08-11T12:42:55.623Z,32.28
2022-08-11T12:48:59.252Z,32.29
2022-08-11T12:54:16.966Z,32.97
2022-08-11T12:59:36.806Z,33.12
2022-08-11T13:04:56.239Z,33.30
2022-08-11T13:09:58.843Z,33.16
2022-08-11T13:15:01.322Z,33.50
2022-08-11T13:20:05.033Z,33.26
2022-08-11T13:25:07.398Z,32.74
2022-08-11T13:30:27.775Z,33.07
2022-08-11T13:35:30.337Z,32.77
2022-08-11T13:40:54.756Z,32.54
2022-08-11T13:46:14.742Z,32.05
2022-08-11T13:51:34.781Z,31.98
2022-08-11T13:56:42.211Z,31.97
2022-08-11T14:02:22.405Z,31.97
2022-08-11T14:07:18.729Z,31.96
2022-08-11T14:12:41.786Z,32.01
2022-08-11T14:17:48.936Z,32.11
2022-08-11T14:22:51.981Z,32.50
2022-08-11T14:28:33.722Z,32.13
2022-08-11T14:33:16.837Z,31.43
2022-08-11T14:38:19.969Z,31.58
2022-08-11T14:44:12.822Z,31.17
2022-08-11T14:49:01.746Z,31.71
2022-08-11T14:54:21.861Z,31.39
2022-08-11T14:59:24.099Z,31.56
2022-08-11T15:04:36.662Z,31.15
2022-08-11T15:10:09.634Z,31.19
2022-08-11T15:15:24.592Z,31.04
2022-08-11T15:20:46.009Z,30.68
2022-08-11T15:25:49.997Z,30.80
2022-08-11T15:31:12.784Z,30.57
2022-08-11T15:36:33.173Z,30.79
2022-08-11T15:42:00.148Z,30.54
2022-08-11T15:47:03.550Z,30.51
2022-08-11T15:52:10.035Z,30.66
2022-08-11T15:57:39.445Z,30.69
2022-08-11T16:02:50.937Z,30.67
2022-08-11T16:07:53.528Z,30.66
2022-08-11T16:13:06.048Z,30.60
2022-08-11T16:18:07.716Z,30.54
2022-08-11T16:23:10.189Z,30.55
2022-08-11T16:28:15.071Z,30.50
2022-08-11T16:33:22.684Z,30.30
2022-08-11T16:38:40.111Z,30.22
2022-08-11T16:44:09.390Z,30.23
2022-08-11T16:49:12.101Z,30.22
2022-08-11T16:54:13.879Z,30.21
2022-08-11T16:59:30.764Z,30.19
2022-08-11T17:05:02.745Z,30.12
2022-08-11T17:10:39.266Z,30.12
2022-08-11T17:16:06.767Z,29.99
2022-08-11T17:21:12.714Z,29.92
2022-08-11T17:26:16.590Z,29.77
2022-08-11T17:31:38.182Z,29.57
2022-08-11T17:36:45.302Z,29.58
2022-08-11T17:42:06.233Z,29.42
2022-08-11T17:47:26.633Z,29.07
2022-08-11T17:52:46.889Z,29.05
2022-08-11T17:58:08.161Z,29.02
2022-08-11T18:03:28.435Z,28.97
2022-08-11T18:08:49.776Z,28.76
2022-08-11T18:14:10.059Z,28.57
2022-08-11T18:19:30.643Z,28.42
2022-08-11T18:25:01.553Z,28.22
2022-08-11T18:30:21.971Z,27.95
2022-08-11T18:35:42.359Z,27.48
2022-08-11T18:41:02.925Z,26.87
2022-08-11T18:46:27.786Z,26.41
2022-08-11T18:51:49.641Z,26.14
2022-08-11T18:57:09.991Z,25.76
2022-08-11T19:02:31.217Z,25.42
2022-08-11T19:07:52.241Z,25.10
2022-08-11T19:13:12.504Z,24.74
2022-08-11T19:18:35.530Z,24.33
2022-08-11T19:23:59.903Z,23.94
2022-08-11T19:30:04.834Z,23.53
2022-08-11T19:35:01.105Z,23.31
2022-08-11T19:40:24.588Z,23.01
2022-08-11T19:45:45.907Z,22.77
2022-08-11T19:51:13.001Z,22.49
2022-08-11T19:56:34.492Z,22.33
2022-08-11T20:02:01.293Z,22.24
2022-08-11T20:07:34.619Z,21.90
2022-08-11T20:12:55.964Z,21.68
2022-08-11T20:18:16.175Z,21.52
2022-08-11T20:23:36.613Z,21.36
2022-08-11T20:28:57.441Z,21.19
2022-08-11T20:34:18.965Z,20.93
2022-08-11T20:39:39.821Z,20.82
2022-08-11T20:45:01.140Z,20.53
2022-08-11T20:50:21.520Z,20.40
2022-08-11T20:55:52.020Z,20.21
2022-08-11T21:01:20.566Z,20.12
2022-08-11T21:06:55.408Z,19.96
2022-08-11T21:12:16.645Z,19.80
2022-08-11T21:17:37.700Z,19.68
2022-08-11T21:23:24.830Z,19.50
2022-08-11T21:28:45.627Z,19.43
2022-08-11T21:34:06.537Z,19.42
2022-08-11T21:39:28.135Z,19.25
2022-08-11T21:44:48.629Z,19.03
2022-08-11T21:50:08.490Z,18.96
2022-08-11T21:55:29.337Z,18.72
2022-08-11T22:00:49.272Z,18.51
2022-08-11T22:06:10.650Z,18.50
2022-08-11T22:11:32.464Z,18.33
2022-08-11T22:16:52.836Z,18.18
2022-08-11T22:22:13.724Z,18.13
2022-08-11T22:27:37.656Z,18.09
2022-08-11T22:32:57.541Z,17.96
2022-08-11T22:38:18.392Z,17.80
2022-08-11T22:43:38.206Z,17.66
2022-08-11T22:48:59.681Z,17.64
2022-08-11T22:54:21.158Z,17.76
2022-08-11T22:59:42.110Z,17.70
2022-08-11T23:05:02.119Z,17.66
2022-08-11T23:10:22.780Z,17.51
2022-08-11T23:15:43.104Z,17.41
2022-08-11T23:21:04.351Z,17.30
2022-08-11T23:26:24.471Z,17.05
2022-08-11T23:31:51.457Z,17.03
2022-08-11T23:37:11.815Z,16.93
2022-08-11T23:42:31.719Z,16.82
2022-08-11T23:47:57.261Z,16.74
2022-08-11T23:53:17.677Z,16.66
2022-08-11T23:58:37.609Z,16.49
